Longworth, Texas
Current Conditions -  °F | °C
As of 10:15 AM on Saturday 20 Dec 2014 (Local Time) from KSWW Reporting Station
Overcast Overcast  
Wind Chill: 41°   Ceiling: 1300
Heat Index: 45°   Visibility: 10mi
Dew Point: 39°   Wind: 8mph
Humidity: 80%   Direction: 190°S
Pressure: 30.25"   Gusts: NA
Location:  32.6787°N, 100.492°W
Report Text: KSWW 201615Z AUTO 19007KT 10SM OVC013 07/04 A3025 RMK AO2 T00720040
Loading
Personal Weather Stations






























Interactive Weather Map New forecast layout! Learn more

10-Day Weather Forecast

Advertisements
Track Severe Weather on mobile